WEATHER DATA

YESTERDAY
Time Temp. Dewp. Hum. Wind dir Wind speed Wind gust Bar. 1h Prec. 24h Prec.
00:18 12.6 9.6 82 158 0.3 1.1 1018.5 0.0000 0.0000
00:28 12.6 9.6 82 169 0.3 1.4 1018.4 0.0000 0.0000
00:38 12.6 9.6 82 180 0.3 1.1 1018.4 0.0000 0.0000
00:48 12.5 9.5 82 191 0.3 1.4 1018.7 0.0000 0.0000
00:58 12.5 9.5 82 198 0.3 1.1 1018.7 0.0000 0.0000
01:08 12.5 9.5 82 176 0.3 1.4 1018.7 0.0000 0.0000
01:18 12.5 9.5 82 214 0.3 1.4 1018.6 0.0000 0.0000
01:29 12.5 9.5 82 193 0.3 1.4 1018.7 0.0000 0.0000
01:38 12.5 9.5 82 222 0.8 2.5 1019 0.0000 0.0000
01:48 12.5 9.5 82 209 0.8 1.7 1019 0.0000 0.0000
01:59 12.5 9.5 82 203 0.3 1.7 1019 0.0000 0.0000
02:09 12.5 9.5 82 196 0.8 1.7 1018.9 0.0000 0.0000
02:19 12.5 9.5 82 214 0.3 1.4 1019 0.0000 0.0000
02:28 12.5 9.5 82 191 0.3 1.4 1018.9 0.0000 0.0000
02:39 12.4 9.4 82 221 0.8 1.7 1018.9 0.0000 0.0000
02:49 12.4 9.4 82 215 0.8 1.7 1018.8 0.0000 0.0000
02:59 12.4 9.4 82 201 0.3 1.7 1018.8 0.0000 0.0000
03:09 12.4 9.4 82 218 0.3 1.4 1018.7 0.0000 0.0000
03:19 12.4 9.4 82 225 0.8 1.7 1018.6 0.0000 0.0000
03:34 12.4 9.4 82 221 0.8 1.7 1018.6 0.0000 0.0000
03:44 12.4 9.4 82 219 0.8 2.2 1018.6 0.0000 0.0000
03:59 12.3 9.5 83 222 0.8 2.5 1018.6 0.0000 0.0000
04:09 12.3 9.5 83 201 0.8 1.7 1018.6 0.0000 0.0000
04:19 12.3 9.5 83 190 0.8 2.2 1018.6 0.0000 0.0000
04:30 12.3 9.5 83 203 0.8 1.4 1018.5 0.0000 0.0000
04:39 12.3 9.5 83 207 0.8 1.7 1018.4 0.0000 0.0000
04:49 12.3 9.5 83 221 0.3 2.2 1018.4 0.0000 0.0000
05:00 12.2 9.4 83 172 0.3 1.7 1018.6 0.0000 0.0000
05:10 12.2 9.4 83 210 0.3 1.4 1018.5 0.0000 0.0000
05:19 12.2 9.4 83 199 0.8 2.2 1018.5 0.0000 0.0000
05:30 12.1 9.3 83 222 1.1 2.8 1018.6 0.0000 0.0000
05:39 12.1 9.3 83 215 0.8 2.5 1018.7 0.0000 0.0000
05:50 12.1 9.5 84 218 0.8 2.2 1018.7 0.0000 0.0000
05:59 12 9.4 84 225 1.1 2.8 1018.8 0.0000 0.0000
06:10 12 9.4 84 223 1.1 2.5 1018.7 0.0000 0.0000
06:20 12 9.4 84 227 0.8 2.2 1018.9 0.0000 0.0000
06:30 12 9.4 84 220 0.8 2.5 1019 0.0000 0.0000
06:40 12 9.4 84 213 0.8 2.5 1019.1 0.0000 0.0000
06:50 12 9.4 84 220 0.8 1.7 1019.1 0.0000 0.0000
07:00 12 9.4 84 219 1.1 3.3 1019.3 0.0000 0.0000
07:10 12 9.4 84 222 0.8 2.2 1019.2 0.0000 0.0000
07:21 12 9.4 84 222 0.8 1.7 1019.1 0.0000 0.0000
07:30 12 9.4 84 228 1.1 2.5 1019.2 0.0000 0.0000
07:40 12 9.4 84 223 0.8 2.5 1019 0.0000 0.0000
07:51 12 9.4 84 225 0.8 1.7 1019.2 0.0000 0.0000
08:01 12 9.4 84 225 0.8 1.4 1019.4 0.0000 0.0000
08:10 12 9.4 84 220 1.1 2.5 1019.4 0.0000 0.0000
08:20 12 9.4 84 225 0.8 2.2 1019.5 0.0000 0.0000
08:31 12 9.4 84 221 1.1 2.5 1019.7 0.0000 0.0000
08:41 12 9.4 84 218 0.8 3.3 1020 0.0000 0.0000
08:51 12 9.4 84 222 0.8 2.5 1020.3 0.0000 0.0000
09:01 12 9.6 85 220 0.8 2.5 1020.3 0.0000 0.0000
09:11 12.1 9.7 85 218 0.8 2.5 1020.6 0.0000 0.0000
09:21 12.2 9.8 85 211 0.8 1.7 1020.4 0.0000 0.0000
09:31 12.2 9.8 85 222 0.8 1.7 1020.5 0.0000 0.0000
09:46 12.4 10 85 217 0.8 2.8 1020.6 0.0000 0.0000
09:56 12.5 10 85 201 0.8 2.5 1020.5 0.0000 0.0000
10:06 12.5 9.9 84 222 0.8 2.2 1020.7 0.0000 0.0000
10:17 12.6 10 84 228 1.1 3.3 1021.1 0.0000 0.0000
10:26 12.6 10 84 225 0.8 2.2 1020.9 0.0000 0.0000
10:36 12.6 10 84 223 1.1 3.3 1021 0.0000 0.0000
10:46 12.6 10 84 216 0.8 2.8 1021.2 0.0000 0.0000
10:57 12.6 10 84 217 1.1 2.8 1021.2 0.0000 0.0000
11:06 12.6 10 84 225 1.4 3.3 1021.4 0.0000 0.0000
11:16 12.6 10 84 225 1.1 2.5 1021.5 0.0000 0.0000
11:27 12.5 9.9 84 215 0.8 2.8 1021.8 0.0000 0.0000
11:37 12.5 10 85 228 1.1 2.8 1021.8 0.0000 0.0000
11:46 12.6 10.1 85 235 1.1 2.8 1021.7 0.0000 0.0000
11:57 12.6 10.1 85 233 1.1 2.5 1021.6 0.0000 0.0000
12:07 12.6 10.1 85 216 1.1 2.8 1021.7 0.0000 0.0000
12:17 12.6 10.1 85 230 1.1 3.3 1021.8 0.0000 0.0000
12:27 12.6 10.1 85 223 1.1 2.8 1022 0.0000 0.0000
12:37 12.7 10.2 85 225 1.1 2.8 1021.8 0.0000 0.0000
12:47 12.7 10.2 85 222 0.8 2.5 1021.9 0.0000 0.0000
12:57 12.8 10.3 85 223 1.1 3.3 1021.9 0.0000 0.0000
13:07 12.9 10.4 85 223 1.1 2.8 1021.9 0.0000 0.0000
13:17 13.1 10.6 85 232 1.4 3.9 1021.7 0.0000 0.0000
13:27 13.3 10.8 85 225 1.4 3.6 1021.7 0.0000 0.0000
13:37 13.4 10.9 85 225 1.1 4.7 1021.7 0.0000 0.0000
13:48 13.5 11 85 227 1.4 3.9 1021.6 0.0000 0.0000
13:58 13.7 11 84 221 1.1 2.5 1021.7 0.0000 0.0000
14:07 13.8 11.1 84 225 1.1 2.8 1021.6 0.0000 0.0000
14:18 14 11.3 84 206 0.8 3.3 1021.7 0.0000 0.0000
14:28 14.2 11.4 83 230 1.1 3.3 1021.6 0.0000 0.0000
14:38 14.2 11.4 83 191 1.1 3.9 1021.7 0.0000 0.0000
14:47 14.1 11.3 83 227 1.1 3.3 1021.8 0.0000 0.0000
14:58 14.1 11.3 83 228 1.1 3.3 1021.7 0.0000 0.0000
15:08 14.1 11.3 83 219 0.8 1.7 1021.5 0.0000 0.0000
15:18 14.1 11.3 83 227 0.8 3.3 1021.4 0.0000 0.0000
15:28 14.1 11.3 83 220 0.8 2.5 1021.5 0.0000 0.0000
15:38 14 11.2 83 219 0.8 2.5 1021.5 0.0000 0.0000
15:48 14 11.2 83 192 0.3 1.4 1021.4 0.0000 0.0000
15:58 14.1 11.3 83 186 0.8 1.4 1021.3 0.0000 0.0000
17:24 14 11.2 83 212 0.3 1.4 1021.2 0.0000 0.0000
17:34 13.9 11.1 83 220 0.3 1.1 1021.3 0.0000 0.0000
17:43 13.9 11.1 83 225 0.3 0.8 1021.4 0.0000 0.0000
18:04 13.8 11 83 145 0.3 1.1 1021.6 0.0000 0.0000
18:14 13.8 11 83 167 0.3 1.1 1021.5 0.0000 0.0000
18:34 13.6 10.8 83 154 0.3 1.1 1021.8 0.0000 0.0000
18:44 13.6 11 84 161 0.3 0.8 1021.6 0.0000 0.0000
19:05 13.5 10.9 84 156 0.3 1.1 1021.6 0.0000 0.0000
19:14 13.5 10.9 84 165 0.3 0.8 1021.5 0.0000 0.0000
19:34 13.4 10.8 84 164 0.3 0.8 1021.7 0.0000 0.0000
19:45 13.4 10.8 84 161 0.3 0.8 1021.8 0.0000 0.0000
20:04 13.3 10.8 85 153 0.3 0.8 1021.7 0.0000 0.0000
20:15 13.3 10.8 85 184 0.3 0.8 1021.7 0.0000 0.0000
20:25 13.2 10.7 85 154 0.3 0.8 1021.6 0.0000 0.0000
20:35 13.2 10.7 85 145 0.3 1.1 1021.6 0.0000 0.0000
20:45 13.2 10.7 85 163 0.3 0.8 1021.4 0.0000 0.0000
20:55 13.2 10.7 85 169 0.3 1.1 1021.4 0.0000 0.0000
21:05 13.2 10.7 85 176 0.3 1.1 1021.6 0.0000 0.0000
21:15 13.2 10.7 85 156 0.3 0.8 1021.7 0.0000 0.0000
21:25 13.2 10.7 85 167 0.3 1.1 1021.6 0.0000 0.0000
21:35 13.1 10.6 85 175 0.3 0.8 1021.7 0.0000 0.0000
21:45 13.1 10.6 85 158 0.3 0.8 1021.7 0.0000 0.0000
21:55 13.1 10.6 85 164 0.3 0.8 1021.6 0.0000 0.0000
22:05 13.1 10.6 85 144 0.3 0.8 1021.7 0.0000 0.0000
22:15 13 10.5 85 154 0.3 0.8 1021.6 0.0000 0.0000
22:23 13 10.5 85 147 0.3 1.1 1021.4 0.4040 0.4000
22:38 13 10.5 85 171 0.3 0.8 1021.3 0.5050 0.5000
22:48 12.9 10.6 86 171 0.3 0.8 1021.3 0.5050 0.5000
23:13 12.9 10.6 86 157 0.3 0.8 1021.1 0.2020 0.5000
23:23 12.9 10.6 86 145 0.3 0.8 1021.2 0.0000 0.5000
23:33 12.8 10.5 86 163 0.3 1.1 1021.3 0.0000 0.5000
23:43 12.8 10.5 86 206 0.3 1.4 1021.3 0.0000
23:53 12.8 10.5 86 218 0.3 1.4 1021.4 0.0000

DAY STATISTIC

2019-10-22
TEMPERATURE
AVERAGE
12.8
HIGH
14.2
14:28
LOW
12.0
05:59
PRESSURE
AVERAGE
1020.4
HIGH
1022.0
12:27
LOW
1018.4
00:28
DEWPOINT
AVERAGE
10.1
HIGH
11.4
14:28
LOW
9.3
05:30
HUMIDITY
AVERAGE
84
HIGH
86
22:48
LOW
82
00:18
WIND SPEED
AVERAGE
0.7
HIGH
1.4
11:06
WIND GUST
AVERAGE
2.0
HIGH
4.7
13:37
WIND DIRECTION
PREVAILING
SW
61.9%
N
0.0
NE
0.0
E
0.0
SE
9.5
S
28.6
SW
61.9
W
0.0
NW
0.0
PRECIPITATION
RAIN HOUR
0.5
RAIN DAY
0.5
TEMPERATURE (°C)
LOW
12.0
HIGH
14.2
AVERAGE
12.8
PRESSURE (hpa)
LOW
1018.4
HIGH
1022.0
AVERAGE
1020.4
DEVICE